sensor_id;sensor_type;location;lat;lon;timestamp;P1;durP1;ratioP1;P2;durP2;ratioP2
16270;SDS011;8243;49.048;8.396;2023-09-18T00:00:49;4.57;;;2.97;;
16270;SDS011;8243;49.048;8.396;2023-09-18T00:03:16;4.90;;;3.20;;
16270;SDS011;8243;49.048;8.396;2023-09-18T00:05:43;6.57;;;3.13;;
16270;SDS011;8243;49.048;8.396;2023-09-18T00:08:10;6.77;;;3.40;;
16270;SDS011;8243;49.048;8.396;2023-09-18T00:10:36;6.03;;;3.00;;
16270;SDS011;8243;49.048;8.396;2023-09-18T00:13:01;4.43;;;3.20;;
16270;SDS011;8243;49.048;8.396;2023-09-18T00:15:27;4.93;;;3.40;;
16270;SDS011;8243;49.048;8.396;2023-09-18T00:17:53;3.07;;;2.70;;
16270;SDS011;8243;49.048;8.396;2023-09-18T00:20:18;3.93;;;3.07;;
16270;SDS011;8243;49.048;8.396;2023-09-18T00:22:45;3.60;;;3.30;;
16270;SDS011;8243;49.048;8.396;2023-09-18T00:25:11;4.53;;;3.33;;
16270;SDS011;8243;49.048;8.396;2023-09-18T00:27:37;5.97;;;3.90;;
16270;SDS011;8243;49.048;8.396;2023-09-18T00:30:03;7.30;;;3.50;;
16270;SDS011;8243;49.048;8.396;2023-09-18T00:32:29;4.83;;;3.77;;
16270;SDS011;8243;49.048;8.396;2023-09-18T00:34:55;3.90;;;3.60;;
16270;SDS011;8243;49.048;8.396;2023-09-18T00:37:21;4.10;;;3.70;;
16270;SDS011;8243;49.048;8.396;2023-09-18T00:39:46;4.63;;;3.93;;
16270;SDS011;8243;49.048;8.396;2023-09-18T00:42:14;5.90;;;3.83;;
16270;SDS011;8243;49.048;8.396;2023-09-18T00:44:41;4.73;;;3.40;;
16270;SDS011;8243;49.048;8.396;2023-09-18T00:47:08;3.60;;;3.30;;
16270;SDS011;8243;49.048;8.396;2023-09-18T00:49:34;6.50;;;3.73;;
16270;SDS011;8243;49.048;8.396;2023-09-18T00:52:01;4.47;;;3.77;;
16270;SDS011;8243;49.048;8.396;2023-09-18T00:54:28;4.37;;;3.80;;
16270;SDS011;8243;49.048;8.396;2023-09-18T00:56:55;6.03;;;3.67;;
16270;SDS011;8243;49.048;8.396;2023-09-18T00:59:21;4.50;;;3.10;;
16270;SDS011;8243;49.048;8.396;2023-09-18T01:01:47;6.23;;;3.40;;
16270;SDS011;8243;49.048;8.396;2023-09-18T01:04:15;6.17;;;3.47;;
16270;SDS011;8243;49.048;8.396;2023-09-18T01:06:41;5.00;;;3.73;;
16270;SDS011;8243;49.048;8.396;2023-09-18T01:09:07;6.03;;;3.13;;
16270;SDS011;8243;49.048;8.396;2023-09-18T01:14:25;6.60;;;3.67;;
16270;SDS011;8243;49.048;8.396;2023-09-18T01:16:59;5.27;;;3.53;;
16270;SDS011;8243;49.048;8.396;2023-09-18T01:19:45;5.40;;;4.33;;
16270;SDS011;8243;49.048;8.396;2023-09-18T01:22:15;4.20;;;3.80;;
16270;SDS011;8243;49.048;8.396;2023-09-18T01:24:42;5.67;;;3.53;;
16270;SDS011;8243;49.048;8.396;2023-09-18T01:27:13;7.17;;;4.80;;
16270;SDS011;8243;49.048;8.396;2023-09-18T01:29:46;4.80;;;3.77;;
16270;SDS011;8243;49.048;8.396;2023-09-18T01:32:15;9.17;;;4.30;;
16270;SDS011;8243;49.048;8.396;2023-09-18T01:34:51;10.93;;;4.50;;
16270;SDS011;8243;49.048;8.396;2023-09-18T01:37:20;5.87;;;4.87;;
16270;SDS011;8243;49.048;8.396;2023-09-18T01:39:51;6.40;;;4.57;;
16270;SDS011;8243;49.048;8.396;2023-09-18T01:42:18;6.33;;;4.83;;
16270;SDS011;8243;49.048;8.396;2023-09-18T01:44:45;5.93;;;4.80;;
16270;SDS011;8243;49.048;8.396;2023-09-18T01:47:13;7.50;;;5.00;;
16270;SDS011;8243;49.048;8.396;2023-09-18T01:49:42;5.60;;;4.77;;
16270;SDS011;8243;49.048;8.396;2023-09-18T01:52:09;8.73;;;4.80;;
16270;SDS011;8243;49.048;8.396;2023-09-18T01:54:34;7.20;;;5.27;;
16270;SDS011;8243;49.048;8.396;2023-09-18T01:57:01;7.37;;;4.80;;
16270;SDS011;8243;49.048;8.396;2023-09-18T01:59:27;7.47;;;5.13;;
16270;SDS011;8243;49.048;8.396;2023-09-18T02:01:54;9.30;;;4.87;;
16270;SDS011;8243;49.048;8.396;2023-09-18T02:04:20;7.50;;;5.40;;
16270;SDS011;8243;49.048;8.396;2023-09-18T02:06:47;8.53;;;5.87;;
16270;SDS011;8243;49.048;8.396;2023-09-18T02:09:14;9.90;;;5.77;;
16270;SDS011;8243;49.048;8.396;2023-09-18T02:11:40;8.73;;;5.47;;
16270;SDS011;8243;49.048;8.396;2023-09-18T02:14:07;7.00;;;5.10;;
16270;SDS011;8243;49.048;8.396;2023-09-18T02:16:35;10.30;;;5.80;;
16270;SDS011;8243;49.048;8.396;2023-09-18T02:19:03;9.47;;;5.07;;
16270;SDS011;8243;49.048;8.396;2023-09-18T02:21:30;11.87;;;5.80;;
16270;SDS011;8243;49.048;8.396;2023-09-18T02:23:56;8.47;;;5.80;;
16270;SDS011;8243;49.048;8.396;2023-09-18T02:26:22;10.37;;;5.10;;
16270;SDS011;8243;49.048;8.396;2023-09-18T02:28:48;9.27;;;5.67;;
16270;SDS011;8243;49.048;8.396;2023-09-18T02:31:14;10.90;;;5.80;;
16270;SDS011;8243;49.048;8.396;2023-09-18T02:33:40;11.80;;;5.87;;
16270;SDS011;8243;49.048;8.396;2023-09-18T02:36:07;11.13;;;5.17;;
16270;SDS011;8243;49.048;8.396;2023-09-18T02:38:32;12.47;;;5.50;;
16270;SDS011;8243;49.048;8.396;2023-09-18T02:40:59;8.00;;;5.67;;
16270;SDS011;8243;49.048;8.396;2023-09-18T02:43:26;7.83;;;5.33;;
16270;SDS011;8243;49.048;8.396;2023-09-18T02:45:51;10.47;;;5.37;;
16270;SDS011;8243;49.048;8.396;2023-09-18T02:48:17;8.07;;;5.53;;
16270;SDS011;8243;49.048;8.396;2023-09-18T02:50:44;9.40;;;5.00;;
16270;SDS011;8243;49.048;8.396;2023-09-18T02:53:17;9.70;;;5.20;;
16270;SDS011;8243;49.048;8.396;2023-09-18T02:55:43;7.47;;;4.80;;
16270;SDS011;8243;49.048;8.396;2023-09-18T02:58:11;9.70;;;4.83;;
16270;SDS011;8243;49.048;8.396;2023-09-18T03:00:43;9.50;;;5.33;;
16270;SDS011;8243;49.048;8.396;2023-09-18T03:03:09;6.97;;;4.70;;
16270;SDS011;8243;49.048;8.396;2023-09-18T03:05:36;10.47;;;4.97;;
16270;SDS011;8243;49.048;8.396;2023-09-18T03:08:02;8.73;;;5.17;;
16270;SDS011;8243;49.048;8.396;2023-09-18T03:10:32;9.40;;;5.03;;
16270;SDS011;8243;49.048;8.396;2023-09-18T03:12:59;8.70;;;5.10;;
16270;SDS011;8243;49.048;8.396;2023-09-18T03:15:25;10.00;;;4.97;;
16270;SDS011;8243;49.048;8.396;2023-09-18T03:17:51;7.97;;;4.90;;
16270;SDS011;8243;49.048;8.396;2023-09-18T03:20:17;7.63;;;5.43;;
16270;SDS011;8243;49.048;8.396;2023-09-18T03:22:43;8.63;;;4.70;;
16270;SDS011;8243;49.048;8.396;2023-09-18T03:25:08;8.77;;;5.00;;
16270;SDS011;8243;49.048;8.396;2023-09-18T03:27:35;6.00;;;4.90;;
16270;SDS011;8243;49.048;8.396;2023-09-18T03:30:00;8.83;;;4.57;;
16270;SDS011;8243;49.048;8.396;2023-09-18T03:32:26;6.53;;;4.63;;
16270;SDS011;8243;49.048;8.396;2023-09-18T03:34:52;7.33;;;4.67;;
16270;SDS011;8243;49.048;8.396;2023-09-18T03:37:19;12.00;;;4.97;;
16270;SDS011;8243;49.048;8.396;2023-09-18T03:39:44;10.93;;;4.90;;
16270;SDS011;8243;49.048;8.396;2023-09-18T03:42:10;9.20;;;4.93;;
16270;SDS011;8243;49.048;8.396;2023-09-18T03:44:37;11.60;;;4.90;;
16270;SDS011;8243;49.048;8.396;2023-09-18T03:47:03;11.23;;;4.77;;
16270;SDS011;8243;49.048;8.396;2023-09-18T03:49:29;16.67;;;5.83;;
16270;SDS011;8243;49.048;8.396;2023-09-18T03:51:56;15.57;;;5.53;;
16270;SDS011;8243;49.048;8.396;2023-09-18T03:54:21;12.10;;;5.30;;
16270;SDS011;8243;49.048;8.396;2023-09-18T03:56:47;10.40;;;5.07;;
16270;SDS011;8243;49.048;8.396;2023-09-18T03:59:13;13.30;;;5.80;;
16270;SDS011;8243;49.048;8.396;2023-09-18T04:01:39;12.07;;;5.23;;
16270;SDS011;8243;49.048;8.396;2023-09-18T04:04:04;9.57;;;5.57;;
16270;SDS011;8243;49.048;8.396;2023-09-18T04:06:37;7.07;;;4.50;;
16270;SDS011;8243;49.048;8.396;2023-09-18T04:09:05;11.87;;;5.03;;
16270;SDS011;8243;49.048;8.396;2023-09-18T04:11:31;11.70;;;4.83;;
16270;SDS011;8243;49.048;8.396;2023-09-18T04:13:58;9.17;;;4.57;;
16270;SDS011;8243;49.048;8.396;2023-09-18T04:16:25;10.90;;;4.47;;
16270;SDS011;8243;49.048;8.396;2023-09-18T04:18:53;11.70;;;4.50;;
16270;SDS011;8243;49.048;8.396;2023-09-18T04:21:19;12.73;;;4.10;;
16270;SDS011;8243;49.048;8.396;2023-09-18T04:23:46;8.53;;;4.00;;
16270;SDS011;8243;49.048;8.396;2023-09-18T04:26:12;9.27;;;4.17;;
16270;SDS011;8243;49.048;8.396;2023-09-18T04:28:39;9.17;;;4.40;;
16270;SDS011;8243;49.048;8.396;2023-09-18T04:31:04;9.07;;;4.70;;
16270;SDS011;8243;49.048;8.396;2023-09-18T04:33:30;11.33;;;5.07;;
16270;SDS011;8243;49.048;8.396;2023-09-18T04:35:55;7.77;;;4.47;;
16270;SDS011;8243;49.048;8.396;2023-09-18T04:38:21;12.60;;;4.90;;
16270;SDS011;8243;49.048;8.396;2023-09-18T04:40:47;12.50;;;4.70;;
16270;SDS011;8243;49.048;8.396;2023-09-18T04:43:13;7.70;;;4.63;;
16270;SDS011;8243;49.048;8.396;2023-09-18T04:45:38;11.73;;;4.77;;
16270;SDS011;8243;49.048;8.396;2023-09-18T04:48:04;8.40;;;4.43;;
16270;SDS011;8243;49.048;8.396;2023-09-18T04:50:33;9.57;;;4.63;;
16270;SDS011;8243;49.048;8.396;2023-09-18T04:52:59;9.73;;;4.83;;
16270;SDS011;8243;49.048;8.396;2023-09-18T04:55:25;12.23;;;5.10;;
16270;SDS011;8243;49.048;8.396;2023-09-18T04:57:50;11.57;;;4.97;;
16270;SDS011;8243;49.048;8.396;2023-09-18T05:00:16;14.10;;;5.63;;
16270;SDS011;8243;49.048;8.396;2023-09-18T05:02:43;10.10;;;4.90;;
16270;SDS011;8243;49.048;8.396;2023-09-18T05:05:09;11.33;;;5.40;;
16270;SDS011;8243;49.048;8.396;2023-09-18T05:07:36;12.63;;;5.53;;
16270;SDS011;8243;49.048;8.396;2023-09-18T05:10:03;13.30;;;5.60;;
16270;SDS011;8243;49.048;8.396;2023-09-18T05:12:29;11.37;;;4.90;;
16270;SDS011;8243;49.048;8.396;2023-09-18T05:14:55;8.40;;;5.00;;
16270;SDS011;8243;49.048;8.396;2023-09-18T05:17:27;9.70;;;5.30;;
16270;SDS011;8243;49.048;8.396;2023-09-18T05:20:17;10.27;;;5.00;;
16270;SDS011;8243;49.048;8.396;2023-09-18T05:22:43;11.53;;;5.10;;
16270;SDS011;8243;49.048;8.396;2023-09-18T05:25:10;12.13;;;5.10;;
16270;SDS011;8243;49.048;8.396;2023-09-18T05:27:36;9.97;;;5.40;;
16270;SDS011;8243;49.048;8.396;2023-09-18T05:30:14;9.67;;;5.90;;
16270;SDS011;8243;49.048;8.396;2023-09-18T05:32:42;8.80;;;5.03;;
16270;SDS011;8243;49.048;8.396;2023-09-18T05:35:08;10.67;;;5.43;;
16270;SDS011;8243;49.048;8.396;2023-09-18T05:37:36;15.40;;;5.43;;
16270;SDS011;8243;49.048;8.396;2023-09-18T05:40:04;10.40;;;6.00;;
16270;SDS011;8243;49.048;8.396;2023-09-18T05:42:32;12.17;;;6.27;;
16270;SDS011;8243;49.048;8.396;2023-09-18T05:44:59;8.80;;;5.77;;
16270;SDS011;8243;49.048;8.396;2023-09-18T05:47:25;12.80;;;5.93;;
16270;SDS011;8243;49.048;8.396;2023-09-18T05:49:52;10.57;;;5.60;;
16270;SDS011;8243;49.048;8.396;2023-09-18T05:52:18;11.27;;;4.83;;
16270;SDS011;8243;49.048;8.396;2023-09-18T05:54:44;12.90;;;4.83;;
16270;SDS011;8243;49.048;8.396;2023-09-18T05:57:09;11.37;;;4.70;;
16270;SDS011;8243;49.048;8.396;2023-09-18T05:59:35;8.90;;;4.67;;
16270;SDS011;8243;49.048;8.396;2023-09-18T06:02:01;14.20;;;5.53;;
16270;SDS011;8243;49.048;8.396;2023-09-18T06:04:27;13.10;;;4.97;;
16270;SDS011;8243;49.048;8.396;2023-09-18T06:06:53;9.33;;;5.67;;
16270;SDS011;8243;49.048;8.396;2023-09-18T06:09:21;13.23;;;4.90;;
16270;SDS011;8243;49.048;8.396;2023-09-18T06:11:47;10.43;;;5.30;;
16270;SDS011;8243;49.048;8.396;2023-09-18T06:14:13;9.50;;;5.10;;
16270;SDS011;8243;49.048;8.396;2023-09-18T06:16:40;11.33;;;4.57;;
16270;SDS011;8243;49.048;8.396;2023-09-18T06:19:05;11.13;;;5.00;;
16270;SDS011;8243;49.048;8.396;2023-09-18T06:21:31;12.53;;;5.43;;
16270;SDS011;8243;49.048;8.396;2023-09-18T06:23:57;10.83;;;5.03;;
16270;SDS011;8243;49.048;8.396;2023-09-18T06:26:22;13.07;;;5.00;;
16270;SDS011;8243;49.048;8.396;2023-09-18T06:28:48;12.40;;;7.37;;
16270;SDS011;8243;49.048;8.396;2023-09-18T06:31:14;14.73;;;8.70;;
16270;SDS011;8243;49.048;8.396;2023-09-18T06:33:40;13.13;;;5.87;;
16270;SDS011;8243;49.048;8.396;2023-09-18T06:36:05;12.17;;;4.73;;
16270;SDS011;8243;49.048;8.396;2023-09-18T06:38:31;8.53;;;4.37;;
16270;SDS011;8243;49.048;8.396;2023-09-18T06:40:58;7.87;;;4.70;;
16270;SDS011;8243;49.048;8.396;2023-09-18T06:43:24;11.07;;;4.60;;
16270;SDS011;8243;49.048;8.396;2023-09-18T06:45:49;14.37;;;5.00;;
16270;SDS011;8243;49.048;8.396;2023-09-18T06:48:15;8.97;;;4.40;;
16270;SDS011;8243;49.048;8.396;2023-09-18T06:50:42;8.07;;;4.43;;
16270;SDS011;8243;49.048;8.396;2023-09-18T06:53:07;10.03;;;4.50;;
16270;SDS011;8243;49.048;8.396;2023-09-18T06:55:35;10.77;;;4.63;;
16270;SDS011;8243;49.048;8.396;2023-09-18T06:58:02;7.27;;;4.13;;
16270;SDS011;8243;49.048;8.396;2023-09-18T07:00:28;10.70;;;4.33;;
16270;SDS011;8243;49.048;8.396;2023-09-18T07:02:54;6.10;;;4.23;;
16270;SDS011;8243;49.048;8.396;2023-09-18T07:05:20;11.23;;;4.27;;
16270;SDS011;8243;49.048;8.396;2023-09-18T07:07:46;10.23;;;4.60;;
16270;SDS011;8243;49.048;8.396;2023-09-18T07:10:12;7.40;;;3.83;;
16270;SDS011;8243;49.048;8.396;2023-09-18T07:12:37;4.60;;;3.43;;
16270;SDS011;8243;49.048;8.396;2023-09-18T07:15:04;7.17;;;3.20;;
16270;SDS011;8243;49.048;8.396;2023-09-18T07:17:31;5.50;;;3.57;;
16270;SDS011;8243;49.048;8.396;2023-09-18T07:19:58;7.20;;;3.47;;
16270;SDS011;8243;49.048;8.396;2023-09-18T07:22:25;6.93;;;3.13;;
16270;SDS011;8243;49.048;8.396;2023-09-18T07:24:52;7.60;;;3.30;;
16270;SDS011;8243;49.048;8.396;2023-09-18T07:27:17;7.27;;;3.20;;
16270;SDS011;8243;49.048;8.396;2023-09-18T07:29:43;7.07;;;2.93;;
16270;SDS011;8243;49.048;8.396;2023-09-18T07:32:09;6.60;;;2.60;;
16270;SDS011;8243;49.048;8.396;2023-09-18T07:34:34;6.33;;;2.70;;
16270;SDS011;8243;49.048;8.396;2023-09-18T07:37:00;6.53;;;2.87;;
16270;SDS011;8243;49.048;8.396;2023-09-18T07:39:26;5.57;;;3.80;;
16270;SDS011;8243;49.048;8.396;2023-09-18T07:41:51;8.87;;;2.90;;
16270;SDS011;8243;49.048;8.396;2023-09-18T07:44:21;6.03;;;3.50;;
16270;SDS011;8243;49.048;8.396;2023-09-18T07:46:47;7.20;;;3.53;;
16270;SDS011;8243;49.048;8.396;2023-09-18T07:49:14;5.70;;;3.53;;
16270;SDS011;8243;49.048;8.396;2023-09-18T07:51:39;3.93;;;2.67;;
16270;SDS011;8243;49.048;8.396;2023-09-18T07:54:06;3.93;;;2.20;;
16270;SDS011;8243;49.048;8.396;2023-09-18T07:56:32;3.00;;;2.20;;
16270;SDS011;8243;49.048;8.396;2023-09-18T07:58:59;4.77;;;1.97;;
16270;SDS011;8243;49.048;8.396;2023-09-18T08:01:25;3.13;;;1.77;;
16270;SDS011;8243;49.048;8.396;2023-09-18T08:03:51;4.70;;;2.10;;
16270;SDS011;8243;49.048;8.396;2023-09-18T08:06:16;2.23;;;1.47;;
16270;SDS011;8243;49.048;8.396;2023-09-18T08:08:44;1.80;;;1.40;;
16270;SDS011;8243;49.048;8.396;2023-09-18T08:11:10;3.40;;;2.17;;
16270;SDS011;8243;49.048;8.396;2023-09-18T08:13:36;3.20;;;1.93;;
16270;SDS011;8243;49.048;8.396;2023-09-18T08:16:05;4.87;;;4.37;;
16270;SDS011;8243;49.048;8.396;2023-09-18T08:18:31;5.30;;;2.80;;
16270;SDS011;8243;49.048;8.396;2023-09-18T08:20:57;4.50;;;2.70;;
16270;SDS011;8243;49.048;8.396;2023-09-18T08:23:26;9.00;;;3.57;;
16270;SDS011;8243;49.048;8.396;2023-09-18T08:25:52;4.50;;;2.17;;
16270;SDS011;8243;49.048;8.396;2023-09-18T08:28:21;2.97;;;1.70;;
16270;SDS011;8243;49.048;8.396;2023-09-18T08:30:47;2.50;;;1.70;;
16270;SDS011;8243;49.048;8.396;2023-09-18T08:33:13;2.67;;;1.60;;
16270;SDS011;8243;49.048;8.396;2023-09-18T08:35:39;5.23;;;3.77;;
16270;SDS011;8243;49.048;8.396;2023-09-18T08:38:05;3.33;;;1.80;;
16270;SDS011;8243;49.048;8.396;2023-09-18T08:40:31;3.40;;;1.60;;
16270;SDS011;8243;49.048;8.396;2023-09-18T08:42:58;4.33;;;1.43;;
16270;SDS011;8243;49.048;8.396;2023-09-18T08:48:01;5.17;;;1.87;;
16270;SDS011;8243;49.048;8.396;2023-09-18T08:50:27;4.20;;;1.80;;
16270;SDS011;8243;49.048;8.396;2023-09-18T08:52:54;4.23;;;1.80;;
16270;SDS011;8243;49.048;8.396;2023-09-18T08:55:21;3.70;;;2.00;;
16270;SDS011;8243;49.048;8.396;2023-09-18T08:57:47;4.57;;;1.90;;
16270;SDS011;8243;49.048;8.396;2023-09-18T09:00:14;7.80;;;1.60;;
16270;SDS011;8243;49.048;8.396;2023-09-18T09:02:45;4.70;;;1.90;;
16270;SDS011;8243;49.048;8.396;2023-09-18T09:05:11;3.30;;;1.47;;
16270;SDS011;8243;49.048;8.396;2023-09-18T09:07:37;6.73;;;1.70;;
16270;SDS011;8243;49.048;8.396;2023-09-18T09:10:03;3.23;;;1.60;;
16270;SDS011;8243;49.048;8.396;2023-09-18T09:15:15;3.40;;;1.50;;
16270;SDS011;8243;49.048;8.396;2023-09-18T09:17:42;5.97;;;1.77;;
16270;SDS011;8243;49.048;8.396;2023-09-18T09:20:08;9.17;;;2.00;;
16270;SDS011;8243;49.048;8.396;2023-09-18T09:22:38;8.63;;;2.13;;
16270;SDS011;8243;49.048;8.396;2023-09-18T09:25:21;5.00;;;2.10;;
16270;SDS011;8243;49.048;8.396;2023-09-18T09:27:51;5.83;;;2.37;;
16270;SDS011;8243;49.048;8.396;2023-09-18T09:30:19;4.60;;;2.03;;
16270;SDS011;8243;49.048;8.396;2023-09-18T09:32:50;4.53;;;1.80;;
16270;SDS011;8243;49.048;8.396;2023-09-18T09:35:20;4.37;;;1.73;;
16270;SDS011;8243;49.048;8.396;2023-09-18T09:37:46;4.00;;;1.50;;
16270;SDS011;8243;49.048;8.396;2023-09-18T09:40:12;3.97;;;1.53;;
16270;SDS011;8243;49.048;8.396;2023-09-18T09:42:39;4.10;;;1.77;;
16270;SDS011;8243;49.048;8.396;2023-09-18T09:45:11;8.20;;;2.10;;
16270;SDS011;8243;49.048;8.396;2023-09-18T09:47:38;3.10;;;1.60;;
16270;SDS011;8243;49.048;8.396;2023-09-18T09:50:22;3.93;;;2.10;;
16270;SDS011;8243;49.048;8.396;2023-09-18T09:52:50;3.07;;;1.93;;
16270;SDS011;8243;49.048;8.396;2023-09-18T09:55:28;3.70;;;1.73;;
16270;SDS011;8243;49.048;8.396;2023-09-18T09:57:59;4.23;;;1.97;;
16270;SDS011;8243;49.048;8.396;2023-09-18T10:00:29;5.27;;;1.87;;
16270;SDS011;8243;49.048;8.396;2023-09-18T10:02:59;4.67;;;1.60;;
16270;SDS011;8243;49.048;8.396;2023-09-18T10:05:29;2.43;;;1.53;;
16270;SDS011;8243;49.048;8.396;2023-09-18T10:07:57;2.67;;;1.70;;
16270;SDS011;8243;49.048;8.396;2023-09-18T10:10:29;3.37;;;1.97;;
16270;SDS011;8243;49.048;8.396;2023-09-18T10:13:03;3.80;;;1.30;;
16270;SDS011;8243;49.048;8.396;2023-09-18T10:15:51;2.77;;;1.70;;
16270;SDS011;8243;49.048;8.396;2023-09-18T10:20:54;5.47;;;1.70;;
16270;SDS011;8243;49.048;8.396;2023-09-18T10:23:32;3.23;;;1.43;;
16270;SDS011;8243;49.048;8.396;2023-09-18T10:26:09;2.63;;;1.50;;
16270;SDS011;8243;49.048;8.396;2023-09-18T10:28:38;2.67;;;1.87;;
16270;SDS011;8243;49.048;8.396;2023-09-18T10:31:05;2.77;;;1.30;;
16270;SDS011;8243;49.048;8.396;2023-09-18T10:33:32;4.30;;;1.50;;
16270;SDS011;8243;49.048;8.396;2023-09-18T10:35:59;2.63;;;1.43;;
16270;SDS011;8243;49.048;8.396;2023-09-18T10:38:26;4.03;;;1.40;;
16270;SDS011;8243;49.048;8.396;2023-09-18T10:40:54;2.20;;;1.50;;
16270;SDS011;8243;49.048;8.396;2023-09-18T10:43:22;1.97;;;1.50;;
16270;SDS011;8243;49.048;8.396;2023-09-18T10:45:49;3.87;;;1.27;;
16270;SDS011;8243;49.048;8.396;2023-09-18T10:48:17;3.40;;;1.70;;
16270;SDS011;8243;49.048;8.396;2023-09-18T10:50:44;2.80;;;1.43;;
16270;SDS011;8243;49.048;8.396;2023-09-18T10:53:11;2.50;;;1.60;;
16270;SDS011;8243;49.048;8.396;2023-09-18T10:55:38;3.27;;;1.87;;
16270;SDS011;8243;49.048;8.396;2023-09-18T10:58:03;3.10;;;1.43;;
16270;SDS011;8243;49.048;8.396;2023-09-18T11:00:30;2.67;;;1.60;;
16270;SDS011;8243;49.048;8.396;2023-09-18T11:03:14;2.90;;;1.50;;
16270;SDS011;8243;49.048;8.396;2023-09-18T11:05:48;2.13;;;1.30;;
16270;SDS011;8243;49.048;8.396;2023-09-18T11:08:30;5.60;;;1.50;;
16270;SDS011;8243;49.048;8.396;2023-09-18T11:11:05;5.63;;;1.50;;
16270;SDS011;8243;49.048;8.396;2023-09-18T11:13:42;4.37;;;1.50;;
16270;SDS011;8243;49.048;8.396;2023-09-18T11:18:39;4.17;;;1.57;;
16270;SDS011;8243;49.048;8.396;2023-09-18T11:21:11;3.17;;;1.50;;
16270;SDS011;8243;49.048;8.396;2023-09-18T11:23:38;4.90;;;1.40;;
16270;SDS011;8243;49.048;8.396;2023-09-18T11:26:10;3.63;;;1.40;;
16270;SDS011;8243;49.048;8.396;2023-09-18T11:28:36;2.27;;;1.10;;
16270;SDS011;8243;49.048;8.396;2023-09-18T11:31:03;4.10;;;1.40;;
16270;SDS011;8243;49.048;8.396;2023-09-18T11:33:33;2.60;;;1.03;;
16270;SDS011;8243;49.048;8.396;2023-09-18T11:36:04;3.87;;;1.60;;
16270;SDS011;8243;49.048;8.396;2023-09-18T11:38:32;3.20;;;1.37;;
16270;SDS011;8243;49.048;8.396;2023-09-18T11:41:01;2.73;;;1.10;;
16270;SDS011;8243;49.048;8.396;2023-09-18T11:43:44;3.87;;;1.30;;
16270;SDS011;8243;49.048;8.396;2023-09-18T11:46:10;2.30;;;1.40;;
16270;SDS011;8243;49.048;8.396;2023-09-18T11:48:37;4.97;;;1.20;;
16270;SDS011;8243;49.048;8.396;2023-09-18T11:51:06;2.30;;;1.10;;
16270;SDS011;8243;49.048;8.396;2023-09-18T11:53:36;1.70;;;1.20;;
16270;SDS011;8243;49.048;8.396;2023-09-18T11:56:09;2.90;;;1.20;;
16270;SDS011;8243;49.048;8.396;2023-09-18T11:58:49;2.97;;;1.37;;
16270;SDS011;8243;49.048;8.396;2023-09-18T12:01:17;2.67;;;1.37;;
16270;SDS011;8243;49.048;8.396;2023-09-18T12:03:43;4.27;;;1.50;;
16270;SDS011;8243;49.048;8.396;2023-09-18T12:06:10;3.67;;;1.33;;
16270;SDS011;8243;49.048;8.396;2023-09-18T12:08:39;3.80;;;1.40;;
16270;SDS011;8243;49.048;8.396;2023-09-18T12:11:06;1.70;;;1.20;;
16270;SDS011;8243;49.048;8.396;2023-09-18T12:13:32;3.03;;;1.30;;
16270;SDS011;8243;49.048;8.396;2023-09-18T12:15:58;2.53;;;1.40;;
16270;SDS011;8243;49.048;8.396;2023-09-18T12:18:31;1.80;;;1.17;;
16270;SDS011;8243;49.048;8.396;2023-09-18T12:20:59;2.20;;;1.40;;
16270;SDS011;8243;49.048;8.396;2023-09-18T12:23:29;1.60;;;1.20;;
16270;SDS011;8243;49.048;8.396;2023-09-18T12:26:01;2.63;;;1.30;;
16270;SDS011;8243;49.048;8.396;2023-09-18T12:28:32;2.47;;;1.47;;
16270;SDS011;8243;49.048;8.396;2023-09-18T12:31:00;2.07;;;1.40;;
16270;SDS011;8243;49.048;8.396;2023-09-18T12:33:30;3.97;;;1.07;;
16270;SDS011;8243;49.048;8.396;2023-09-18T12:36:00;2.60;;;1.17;;
16270;SDS011;8243;49.048;8.396;2023-09-18T12:38:26;3.13;;;1.60;;
16270;SDS011;8243;49.048;8.396;2023-09-18T12:40:53;4.07;;;1.30;;
16270;SDS011;8243;49.048;8.396;2023-09-18T12:43:20;5.87;;;1.47;;
16270;SDS011;8243;49.048;8.396;2023-09-18T12:45:47;3.83;;;1.13;;
16270;SDS011;8243;49.048;8.396;2023-09-18T12:48:14;3.47;;;1.43;;
16270;SDS011;8243;49.048;8.396;2023-09-18T12:50:41;4.97;;;1.60;;
16270;SDS011;8243;49.048;8.396;2023-09-18T12:53:10;2.10;;;1.30;;
16270;SDS011;8243;49.048;8.396;2023-09-18T12:55:37;2.53;;;1.50;;
16270;SDS011;8243;49.048;8.396;2023-09-18T12:58:04;3.63;;;1.40;;
16270;SDS011;8243;49.048;8.396;2023-09-18T13:00:33;2.03;;;1.10;;
16270;SDS011;8243;49.048;8.396;2023-09-18T13:03:01;6.60;;;1.40;;
16270;SDS011;8243;49.048;8.396;2023-09-18T13:05:29;2.57;;;1.40;;
16270;SDS011;8243;49.048;8.396;2023-09-18T13:08:01;2.67;;;1.20;;
16270;SDS011;8243;49.048;8.396;2023-09-18T13:10:28;2.63;;;1.30;;
16270;SDS011;8243;49.048;8.396;2023-09-18T13:12:54;2.30;;;1.20;;
16270;SDS011;8243;49.048;8.396;2023-09-18T13:15:30;3.87;;;1.50;;
16270;SDS011;8243;49.048;8.396;2023-09-18T13:18:09;1.80;;;1.10;;
16270;SDS011;8243;49.048;8.396;2023-09-18T13:20:36;2.20;;;1.20;;
16270;SDS011;8243;49.048;8.396;2023-09-18T13:23:02;4.30;;;1.17;;
16270;SDS011;8243;49.048;8.396;2023-09-18T13:25:40;2.20;;;1.30;;
16270;SDS011;8243;49.048;8.396;2023-09-18T13:28:11;3.03;;;1.50;;
16270;SDS011;8243;49.048;8.396;2023-09-18T13:30:38;1.77;;;1.37;;
16270;SDS011;8243;49.048;8.396;2023-09-18T13:33:09;2.13;;;1.30;;
16270;SDS011;8243;49.048;8.396;2023-09-18T13:35:42;2.67;;;1.10;;
16270;SDS011;8243;49.048;8.396;2023-09-18T13:38:09;1.90;;;1.30;;
16270;SDS011;8243;49.048;8.396;2023-09-18T13:40:42;3.87;;;1.50;;
16270;SDS011;8243;49.048;8.396;2023-09-18T13:43:10;1.60;;;1.20;;
16270;SDS011;8243;49.048;8.396;2023-09-18T13:45:36;2.37;;;1.17;;
16270;SDS011;8243;49.048;8.396;2023-09-18T13:48:03;2.63;;;1.50;;
16270;SDS011;8243;49.048;8.396;2023-09-18T13:50:29;1.47;;;1.07;;
16270;SDS011;8243;49.048;8.396;2023-09-18T13:52:55;1.43;;;1.00;;
16270;SDS011;8243;49.048;8.396;2023-09-18T13:55:22;2.90;;;1.30;;
16270;SDS011;8243;49.048;8.396;2023-09-18T13:57:47;1.60;;;1.27;;
16270;SDS011;8243;49.048;8.396;2023-09-18T14:00:13;1.43;;;1.23;;
16270;SDS011;8243;49.048;8.396;2023-09-18T14:02:39;1.73;;;1.30;;
16270;SDS011;8243;49.048;8.396;2023-09-18T14:05:06;3.77;;;1.70;;
16270;SDS011;8243;49.048;8.396;2023-09-18T14:07:32;1.77;;;1.40;;
16270;SDS011;8243;49.048;8.396;2023-09-18T14:09:58;1.60;;;1.20;;
16270;SDS011;8243;49.048;8.396;2023-09-18T14:12:28;2.70;;;1.30;;
16270;SDS011;8243;49.048;8.396;2023-09-18T14:14:55;1.87;;;1.40;;
16270;SDS011;8243;49.048;8.396;2023-09-18T14:17:21;3.13;;;1.40;;
16270;SDS011;8243;49.048;8.396;2023-09-18T14:19:46;2.40;;;1.40;;
16270;SDS011;8243;49.048;8.396;2023-09-18T14:22:12;2.50;;;1.40;;
16270;SDS011;8243;49.048;8.396;2023-09-18T14:24:39;1.70;;;1.30;;
16270;SDS011;8243;49.048;8.396;2023-09-18T14:27:05;2.30;;;1.30;;
16270;SDS011;8243;49.048;8.396;2023-09-18T14:29:32;1.30;;;1.20;;
16270;SDS011;8243;49.048;8.396;2023-09-18T14:31:58;1.47;;;1.10;;
16270;SDS011;8243;49.048;8.396;2023-09-18T14:34:25;4.40;;;1.27;;
16270;SDS011;8243;49.048;8.396;2023-09-18T14:36:50;2.90;;;1.40;;
16270;SDS011;8243;49.048;8.396;2023-09-18T14:39:16;2.80;;;1.47;;
16270;SDS011;8243;49.048;8.396;2023-09-18T14:41:41;3.10;;;1.67;;
16270;SDS011;8243;49.048;8.396;2023-09-18T14:44:08;2.63;;;1.40;;
16270;SDS011;8243;49.048;8.396;2023-09-18T14:46:35;1.53;;;1.40;;
16270;SDS011;8243;49.048;8.396;2023-09-18T14:49:02;4.40;;;1.63;;
16270;SDS011;8243;49.048;8.396;2023-09-18T14:51:29;2.57;;;1.57;;
16270;SDS011;8243;49.048;8.396;2023-09-18T14:53:56;2.33;;;1.40;;
16270;SDS011;8243;49.048;8.396;2023-09-18T14:56:27;2.77;;;1.30;;
16270;SDS011;8243;49.048;8.396;2023-09-18T14:58:52;7.17;;;4.47;;
16270;SDS011;8243;49.048;8.396;2023-09-18T15:01:20;8.10;;;6.17;;
16270;SDS011;8243;49.048;8.396;2023-09-18T15:03:47;3.40;;;1.43;;
16270;SDS011;8243;49.048;8.396;2023-09-18T15:06:15;4.17;;;1.50;;
16270;SDS011;8243;49.048;8.396;2023-09-18T15:08:41;1.23;;;1.13;;
16270;SDS011;8243;49.048;8.396;2023-09-18T15:11:07;2.07;;;1.40;;
16270;SDS011;8243;49.048;8.396;2023-09-18T15:13:33;3.77;;;1.33;;